createdAt,value
2019-04-10T00:00:03.107Z,9.80
2019-04-10T00:04:55.998Z,9.80
2019-04-10T00:09:48.136Z,9.80
2019-04-10T00:14:39.311Z,9.90
2019-04-10T00:19:31.050Z,9.80
2019-04-10T00:24:22.335Z,9.80
2019-04-10T00:29:12.702Z,9.80
2019-04-10T00:34:05.263Z,9.90
2019-04-10T00:39:00.574Z,9.80
2019-04-10T00:43:47.500Z,9.90
2019-04-10T00:48:38.247Z,9.90
2019-04-10T00:53:30.216Z,9.80
2019-04-10T00:58:21.071Z,9.80
2019-04-10T01:03:13.383Z,9.90
2019-04-10T01:08:05.051Z,9.80
2019-04-10T01:12:55.232Z,9.90
2019-04-10T01:17:47.281Z,9.90
2019-04-10T01:22:39.038Z,9.90
2019-04-10T01:27:29.450Z,9.90
2019-04-10T01:32:20.950Z,9.80
2019-04-10T01:37:13.042Z,9.70
2019-04-10T01:42:04.611Z,9.80
2019-04-10T01:46:55.629Z,9.80
2019-04-10T01:51:46.410Z,9.70
2019-04-10T01:56:40.038Z,9.70
2019-04-10T02:01:32.703Z,9.60
2019-04-10T02:06:22.845Z,9.50
2019-04-10T02:11:14.177Z,9.20
2019-04-10T02:16:08.502Z,9.10
2019-04-10T02:21:01.496Z,8.90
2019-04-10T02:25:53.458Z,8.80
2019-04-10T02:30:46.172Z,8.70
2019-04-10T02:35:48.377Z,8.80
2019-04-10T02:40:43.230Z,8.80
2019-04-10T02:45:36.697Z,8.70
2019-04-10T02:50:30.908Z,8.50
2019-04-10T02:55:24.616Z,8.50
2019-04-10T03:00:14.660Z,8.50
2019-04-10T03:05:09.219Z,8.40
2019-04-10T03:10:38.796Z,8.40
2019-04-10T03:14:55.103Z,8.40
2019-04-10T03:19:41.995Z,8.30
2019-04-10T03:24:32.352Z,8.30
2019-04-10T03:29:24.686Z,7.40
2019-04-10T03:34:25.466Z,8.20
2019-04-10T03:39:10.976Z,8.10
2019-04-10T03:43:59.050Z,8.10
2019-04-10T03:48:51.755Z,8.00
2019-04-10T03:53:43.154Z,8.00
2019-04-10T03:58:34.398Z,8.00
2019-04-10T04:03:27.026Z,8.10
2019-04-10T04:08:17.251Z,8.10
2019-04-10T04:13:09.688Z,8.10
2019-04-10T04:18:00.945Z,8.10
2019-04-10T04:22:51.456Z,8.10
2019-04-10T04:27:42.783Z,8.10
2019-04-10T04:32:34.160Z,8.00
2019-04-10T04:37:26.569Z,8.00
2019-04-10T04:42:17.663Z,7.90
2019-04-10T04:47:08.375Z,7.90
2019-04-10T04:52:00.846Z,7.90
2019-04-10T04:56:51.167Z,7.80
2019-04-10T05:01:43.182Z,7.70
2019-04-10T05:06:34.989Z,7.70
2019-04-10T05:11:26.319Z,7.70
2019-04-10T05:16:17.245Z,7.70
2019-04-10T05:21:09.186Z,7.70
2019-04-10T05:26:01.002Z,7.70
2019-04-10T05:30:51.314Z,7.70
2019-04-10T05:35:42.480Z,7.70
2019-04-10T05:40:35.091Z,7.70
2019-04-10T05:45:26.089Z,7.70
2019-04-10T05:50:16.739Z,7.80
2019-04-10T05:55:09.052Z,7.90
2019-04-10T06:00:02.614Z,7.90
2019-04-10T06:04:54.201Z,7.90
2019-04-10T06:10:08.553Z,8.00
2019-04-10T06:14:35.712Z,8.10
2019-04-10T06:19:28.718Z,8.20
2019-04-10T06:24:20.100Z,8.20
2019-04-10T06:29:11.182Z,8.30
2019-04-10T06:34:01.415Z,8.40
2019-04-10T06:38:53.717Z,8.40
2019-04-10T06:43:44.098Z,8.40
2019-04-10T06:48:36.622Z,8.40
2019-04-10T06:53:27.131Z,8.60
2019-04-10T06:58:18.603Z,8.50
2019-04-10T07:03:10.879Z,8.70
2019-04-10T07:08:22.438Z,8.90
2019-04-10T07:12:53.772Z,9.10
2019-04-10T07:17:44.760Z,9.20
2019-04-10T07:22:35.210Z,9.30
2019-04-10T07:27:27.731Z,9.40
2019-04-10T07:32:19.922Z,9.40
2019-04-10T07:37:23.850Z,9.50
2019-04-10T07:42:01.763Z,9.60
2019-04-10T07:46:53.325Z,9.70
2019-04-10T07:51:48.503Z,9.60
2019-04-10T07:56:36.025Z,9.70
2019-04-10T08:01:27.078Z,9.80
2019-04-10T08:06:18.578Z,9.90
2019-04-10T08:11:09.768Z,9.90
2019-04-10T08:16:01.343Z,9.70
2019-04-10T08:20:52.821Z,9.90
2019-04-10T08:25:43.723Z,10.00
2019-04-10T08:30:34.924Z,10.00
2019-04-10T08:35:26.349Z,10.10
2019-04-10T08:40:17.473Z,10.10
2019-04-10T08:45:09.835Z,10.10
2019-04-10T08:50:01.336Z,9.80
2019-04-10T08:54:51.860Z,9.60
2019-04-10T08:59:48.578Z,9.70
2019-04-10T09:04:34.471Z,9.70
2019-04-10T09:09:26.381Z,9.70
2019-04-10T09:14:17.685Z,9.70
2019-04-10T09:19:09.677Z,9.70
2019-04-10T09:24:02.990Z,9.70
2019-04-10T09:28:54.836Z,9.60
2019-04-10T09:33:45.941Z,9.70
2019-04-10T09:38:39.229Z,9.60
2019-04-10T09:43:31.963Z,9.70
2019-04-10T09:48:24.000Z,9.70
2019-04-10T09:53:15.562Z,9.80
2019-04-10T09:58:04.681Z,9.90
2019-04-10T10:02:55.723Z,9.90
2019-04-10T10:07:48.335Z,10.00
2019-04-10T10:12:40.488Z,10.10
2019-04-10T10:17:33.559Z,10.10
2019-04-10T10:22:23.146Z,10.30
2019-04-10T10:27:14.306Z,10.50
2019-04-10T10:32:05.638Z,10.70
2019-04-10T10:36:57.874Z,10.70
2019-04-10T10:41:49.484Z,11.00
2019-04-10T10:46:39.712Z,11.30
2019-04-10T10:51:29.602Z,11.50
2019-04-10T10:56:22.864Z,11.70
2019-04-10T11:01:13.645Z,12.00
2019-04-10T11:06:04.527Z,12.50
2019-04-10T11:11:01.159Z,12.50
2019-04-10T11:15:50.392Z,12.70
2019-04-10T11:20:41.556Z,12.80
2019-04-10T11:25:33.945Z,12.70
2019-04-10T11:30:28.600Z,12.80
2019-04-10T11:35:21.372Z,13.00
2019-04-10T11:42:10.526Z,12.90
2019-04-10T11:45:04.025Z,12.50
2019-04-10T11:49:56.785Z,12.80
2019-04-10T11:54:50.010Z,12.90
2019-04-10T11:59:41.253Z,12.60
2019-04-10T12:04:47.894Z,12.80
2019-04-10T12:14:08.570Z,13.40
2019-04-10T12:19:00.030Z,13.40
2019-04-10T12:23:51.912Z,13.30
2019-04-10T12:28:42.994Z,13.30
2019-04-10T12:33:38.326Z,13.80
2019-04-10T12:38:32.188Z,14.10
2019-04-10T12:43:24.877Z,14.20
2019-04-10T12:48:14.300Z,14.40
2019-04-10T12:53:05.003Z,14.20
2019-04-10T12:58:19.227Z,14.30
2019-04-10T13:02:47.877Z,14.30
2019-04-10T13:07:40.333Z,14.40
2019-04-10T13:12:33.083Z,14.20
2019-04-10T13:17:24.525Z,14.10
2019-04-10T13:22:16.204Z,14.20
2019-04-10T13:27:06.750Z,14.20
2019-04-10T13:31:57.307Z,13.80
2019-04-10T13:36:51.903Z,13.90
2019-04-10T13:41:43.408Z,14.00
2019-04-10T13:46:35.942Z,14.10
2019-04-10T13:51:26.236Z,14.00
2019-04-10T13:56:17.472Z,14.10
2019-04-10T14:01:09.061Z,13.80
2019-04-10T14:05:59.096Z,13.50
2019-04-10T14:10:53.312Z,13.50
2019-04-10T14:15:46.255Z,13.40
2019-04-10T14:20:36.424Z,13.40
2019-04-10T14:25:27.997Z,13.50
2019-04-10T14:30:19.229Z,13.40
2019-04-10T14:35:11.871Z,13.30
2019-04-10T14:40:02.508Z,13.30
2019-04-10T14:44:53.588Z,13.30
2019-04-10T14:49:46.135Z,13.50
2019-04-10T14:54:38.312Z,13.50
2019-04-10T14:59:29.058Z,13.40
2019-04-10T15:04:21.827Z,13.60
2019-04-10T15:09:27.627Z,13.70
2019-04-10T15:14:04.034Z,13.40
2019-04-10T15:18:56.536Z,13.10
2019-04-10T15:23:48.385Z,13.10
2019-04-10T15:28:41.368Z,11.00
2019-04-10T15:33:32.293Z,13.00
2019-04-10T15:38:24.456Z,13.00
2019-04-10T15:43:14.205Z,12.90
2019-04-10T15:48:05.722Z,12.90
2019-04-10T15:52:57.826Z,13.00
2019-04-10T15:58:02.252Z,12.90
2019-04-10T16:02:40.555Z,12.90
2019-04-10T16:12:23.194Z,12.70
2019-04-10T16:17:15.503Z,12.60
2019-04-10T16:22:04.834Z,12.50
2019-04-10T16:26:57.871Z,12.60
2019-04-10T16:31:50.191Z,12.40
2019-04-10T16:36:39.112Z,12.60
2019-04-10T16:41:33.281Z,12.20
2019-04-10T16:46:23.537Z,12.20
2019-04-10T16:51:14.494Z,12.20
2019-04-10T16:56:05.859Z,12.20
2019-04-10T17:00:57.934Z,12.20
2019-04-10T17:05:48.505Z,12.10
2019-04-10T17:10:40.664Z,12.20
2019-04-10T17:15:32.156Z,12.10
2019-04-10T17:20:24.842Z,12.00
2019-04-10T17:25:14.170Z,11.90
2019-04-10T17:30:05.778Z,11.90
2019-04-10T17:34:57.273Z,11.90
2019-04-10T17:39:49.307Z,11.80
2019-04-10T17:44:40.062Z,11.70
2019-04-10T17:49:32.246Z,11.50
2019-04-10T17:54:21.430Z,11.50
2019-04-10T17:59:14.171Z,11.50
2019-04-10T18:04:05.939Z,11.30
2019-04-10T18:08:57.018Z,11.20
2019-04-10T18:13:48.931Z,11.10
2019-04-10T18:18:40.267Z,10.90
2019-04-10T18:23:29.752Z,10.90
2019-04-10T18:28:22.019Z,10.80
2019-04-10T18:33:13.872Z,10.70
2019-04-10T18:38:04.199Z,10.70
2019-04-10T18:43:00.818Z,10.60
2019-04-10T18:47:50.147Z,10.70
2019-04-10T18:52:43.714Z,10.60
2019-04-10T18:57:36.254Z,10.50
2019-04-10T19:02:30.765Z,10.60
2019-04-10T19:07:18.051Z,10.50
2019-04-10T19:12:10.960Z,10.50
2019-04-10T19:17:03.415Z,10.50
2019-04-10T19:21:55.610Z,10.50
2019-04-10T19:26:45.997Z,10.50
2019-04-10T19:31:39.989Z,10.50
2019-04-10T19:36:30.211Z,10.40
2019-04-10T19:41:40.191Z,10.40
2019-04-10T19:46:13.064Z,10.40
2019-04-10T19:51:04.307Z,10.40
2019-04-10T19:55:56.668Z,10.40
2019-04-10T20:00:47.167Z,10.40
2019-04-10T20:05:39.567Z,10.40
2019-04-10T20:10:30.330Z,10.30
2019-04-10T20:15:21.154Z,10.30
2019-04-10T20:20:15.488Z,10.20
2019-04-10T20:25:06.844Z,10.20
2019-04-10T20:29:57.638Z,10.10
2019-04-10T20:34:49.157Z,10.10
2019-04-10T20:39:41.637Z,10.00
2019-04-10T20:44:32.954Z,10.00
2019-04-10T20:49:23.123Z,10.00
2019-04-10T20:54:15.517Z,9.90
2019-04-10T20:59:06.225Z,9.80
2019-04-10T21:03:57.367Z,9.80
2019-04-10T21:08:48.728Z,9.80
2019-04-10T21:13:41.141Z,9.70
2019-04-10T21:18:32.106Z,9.80
2019-04-10T21:23:24.139Z,9.60
2019-04-10T21:28:14.762Z,9.50
2019-04-10T21:33:06.512Z,9.60
2019-04-10T21:37:57.531Z,9.50
2019-04-10T21:42:49.484Z,9.50
2019-04-10T21:47:39.884Z,9.40
2019-04-10T21:52:33.422Z,9.20
2019-04-10T21:57:24.959Z,9.10
2019-04-10T22:02:17.366Z,9.10
2019-04-10T22:07:08.368Z,9.00
2019-04-10T22:11:59.109Z,8.90
2019-04-10T22:16:51.187Z,8.90
2019-04-10T22:21:42.606Z,8.60
2019-04-10T22:26:34.408Z,8.60
2019-04-10T22:31:25.580Z,8.50
2019-04-10T22:36:17.332Z,8.40
2019-04-10T22:41:33.535Z,8.20
2019-04-10T22:46:01.035Z,8.10
2019-04-10T22:50:53.755Z,8.00
2019-04-10T22:55:45.058Z,7.90
2019-04-10T23:00:35.733Z,7.90
2019-04-10T23:05:27.450Z,7.80
2019-04-10T23:10:19.322Z,7.70
2019-04-10T23:15:09.840Z,7.60
2019-04-10T23:20:01.366Z,7.50
2019-04-10T23:24:52.485Z,7.40
2019-04-10T23:29:44.927Z,7.30
2019-04-10T23:34:35.247Z,7.20
2019-04-10T23:39:26.682Z,7.10
2019-04-10T23:44:19.134Z,7.00
2019-04-10T23:49:09.632Z,6.90
2019-04-10T23:54:01.295Z,6.80
2019-04-10T23:58:52.078Z,6.70
